sensor_id;sensor_type;location;lat;lon;timestamp;P1;durP1;ratioP1;P2;durP2;ratioP2
2462;SDS011;1243;54.298;10.172;2022-12-29T00:00:07;4.67;;;4.20;;
2462;SDS011;1243;54.298;10.172;2022-12-29T00:02:34;3.87;;;3.57;;
2462;SDS011;1243;54.298;10.172;2022-12-29T00:05:00;4.03;;;3.73;;
2462;SDS011;1243;54.298;10.172;2022-12-29T00:07:26;5.40;;;4.10;;
2462;SDS011;1243;54.298;10.172;2022-12-29T00:09:51;4.93;;;3.67;;
2462;SDS011;1243;54.298;10.172;2022-12-29T00:12:17;5.80;;;5.23;;
2462;SDS011;1243;54.298;10.172;2022-12-29T00:14:43;3.67;;;3.37;;
2462;SDS011;1243;54.298;10.172;2022-12-29T00:17:27;5.50;;;5.10;;
2462;SDS011;1243;54.298;10.172;2022-12-29T00:19:52;5.90;;;5.40;;
2462;SDS011;1243;54.298;10.172;2022-12-29T00:22:36;6.40;;;5.80;;
2462;SDS011;1243;54.298;10.172;2022-12-29T00:25:20;4.50;;;4.17;;
2462;SDS011;1243;54.298;10.172;2022-12-29T00:28:09;4.50;;;4.20;;
2462;SDS011;1243;54.298;10.172;2022-12-29T00:30:54;4.80;;;4.50;;
2462;SDS011;1243;54.298;10.172;2022-12-29T00:33:42;5.53;;;5.07;;
2462;SDS011;1243;54.298;10.172;2022-12-29T00:36:34;5.90;;;5.40;;
2462;SDS011;1243;54.298;10.172;2022-12-29T00:39:08;5.83;;;5.40;;
2462;SDS011;1243;54.298;10.172;2022-12-29T00:42:02;6.20;;;5.60;;
2462;SDS011;1243;54.298;10.172;2022-12-29T00:44:50;7.17;;;6.57;;
2462;SDS011;1243;54.298;10.172;2022-12-29T00:47:16;6.50;;;6.00;;
2462;SDS011;1243;54.298;10.172;2022-12-29T00:49:42;5.80;;;5.30;;
2462;SDS011;1243;54.298;10.172;2022-12-29T00:52:08;6.33;;;5.83;;
2462;SDS011;1243;54.298;10.172;2022-12-29T00:54:37;5.70;;;5.30;;
2462;SDS011;1243;54.298;10.172;2022-12-29T00:57:05;7.37;;;6.67;;
2462;SDS011;1243;54.298;10.172;2022-12-29T00:59:32;5.30;;;4.90;;
2462;SDS011;1243;54.298;10.172;2022-12-29T01:02:00;7.20;;;6.50;;
2462;SDS011;1243;54.298;10.172;2022-12-29T01:04:28;7.20;;;6.60;;
2462;SDS011;1243;54.298;10.172;2022-12-29T01:06:54;7.90;;;5.87;;
2462;SDS011;1243;54.298;10.172;2022-12-29T01:09:20;7.07;;;6.47;;
2462;SDS011;1243;54.298;10.172;2022-12-29T01:12:05;5.23;;;4.73;;
2462;SDS011;1243;54.298;10.172;2022-12-29T01:14:32;7.40;;;6.70;;
2462;SDS011;1243;54.298;10.172;2022-12-29T01:16:58;7.53;;;6.80;;
2462;SDS011;1243;54.298;10.172;2022-12-29T01:19:23;8.33;;;7.53;;
2462;SDS011;1243;54.298;10.172;2022-12-29T01:21:49;7.77;;;7.17;;
2462;SDS011;1243;54.298;10.172;2022-12-29T01:24:16;10.80;;;7.33;;
2462;SDS011;1243;54.298;10.172;2022-12-29T01:26:42;8.23;;;7.43;;
2462;SDS011;1243;54.298;10.172;2022-12-29T01:29:09;6.90;;;6.30;;
2462;SDS011;1243;54.298;10.172;2022-12-29T01:31:35;8.47;;;7.50;;
2462;SDS011;1243;54.298;10.172;2022-12-29T01:34:01;10.03;;;7.60;;
2462;SDS011;1243;54.298;10.172;2022-12-29T01:36:26;8.43;;;7.70;;
2462;SDS011;1243;54.298;10.172;2022-12-29T01:38:52;9.40;;;7.67;;
2462;SDS011;1243;54.298;10.172;2022-12-29T01:41:18;9.53;;;8.07;;
2462;SDS011;1243;54.298;10.172;2022-12-29T01:43:48;10.03;;;6.90;;
2462;SDS011;1243;54.298;10.172;2022-12-29T01:49:04;7.80;;;7.00;;
2462;SDS011;1243;54.298;10.172;2022-12-29T01:51:43;9.07;;;8.03;;
2462;SDS011;1243;54.298;10.172;2022-12-29T01:54:13;7.20;;;6.60;;
2462;SDS011;1243;54.298;10.172;2022-12-29T01:57:02;8.10;;;7.10;;
2462;SDS011;1243;54.298;10.172;2022-12-29T01:59:33;9.30;;;7.23;;
2462;SDS011;1243;54.298;10.172;2022-12-29T02:02:02;8.03;;;6.23;;
2462;SDS011;1243;54.298;10.172;2022-12-29T02:04:29;8.50;;;7.60;;
2462;SDS011;1243;54.298;10.172;2022-12-29T02:07:00;10.63;;;7.13;;
2462;SDS011;1243;54.298;10.172;2022-12-29T02:09:39;8.60;;;7.87;;
2462;SDS011;1243;54.298;10.172;2022-12-29T02:12:06;7.93;;;7.13;;
2462;SDS011;1243;54.298;10.172;2022-12-29T02:14:32;7.20;;;6.47;;
2462;SDS011;1243;54.298;10.172;2022-12-29T02:17:08;7.77;;;7.07;;
2462;SDS011;1243;54.298;10.172;2022-12-29T02:22:30;8.70;;;7.57;;
2462;SDS011;1243;54.298;10.172;2022-12-29T02:30:44;8.53;;;7.73;;
2462;SDS011;1243;54.298;10.172;2022-12-29T02:46:52;7.33;;;6.73;;
2462;SDS011;1243;54.298;10.172;2022-12-29T02:49:06;9.63;;;7.10;;
2462;SDS011;1243;54.298;10.172;2022-12-29T02:54:40;7.90;;;6.40;;
2462;SDS011;1243;54.298;10.172;2022-12-29T02:59:38;7.67;;;6.97;;
2462;SDS011;1243;54.298;10.172;2022-12-29T03:11:03;7.27;;;6.53;;
2462;SDS011;1243;54.298;10.172;2022-12-29T03:13:52;7.93;;;7.13;;
2462;SDS011;1243;54.298;10.172;2022-12-29T03:17:01;6.30;;;5.80;;
2462;SDS011;1243;54.298;10.172;2022-12-29T03:19:36;8.30;;;6.53;;
2462;SDS011;1243;54.298;10.172;2022-12-29T03:22:08;7.73;;;6.87;;
2462;SDS011;1243;54.298;10.172;2022-12-29T03:24:54;6.50;;;6.00;;
2462;SDS011;1243;54.298;10.172;2022-12-29T03:27:38;7.33;;;6.63;;
2462;SDS011;1243;54.298;10.172;2022-12-29T03:30:16;7.40;;;6.80;;
2462;SDS011;1243;54.298;10.172;2022-12-29T03:32:52;6.30;;;5.73;;
2462;SDS011;1243;54.298;10.172;2022-12-29T03:35:23;8.67;;;6.10;;
2462;SDS011;1243;54.298;10.172;2022-12-29T03:38:02;12.27;;;9.47;;
2462;SDS011;1243;54.298;10.172;2022-12-29T03:40:41;8.20;;;7.40;;
2462;SDS011;1243;54.298;10.172;2022-12-29T03:43:09;8.20;;;7.40;;
2462;SDS011;1243;54.298;10.172;2022-12-29T03:45:36;8.17;;;6.90;;
2462;SDS011;1243;54.298;10.172;2022-12-29T03:48:02;8.73;;;7.93;;
2462;SDS011;1243;54.298;10.172;2022-12-29T03:50:28;8.67;;;7.87;;
2462;SDS011;1243;54.298;10.172;2022-12-29T03:52:53;9.43;;;8.23;;
2462;SDS011;1243;54.298;10.172;2022-12-29T03:55:19;8.63;;;7.73;;
2462;SDS011;1243;54.298;10.172;2022-12-29T03:57:45;8.57;;;7.80;;
2462;SDS011;1243;54.298;10.172;2022-12-29T04:00:11;8.37;;;7.37;;
2462;SDS011;1243;54.298;10.172;2022-12-29T04:02:38;8.83;;;7.87;;
2462;SDS011;1243;54.298;10.172;2022-12-29T04:05:04;8.80;;;7.20;;
2462;SDS011;1243;54.298;10.172;2022-12-29T04:07:30;10.20;;;8.27;;
2462;SDS011;1243;54.298;10.172;2022-12-29T04:09:56;9.07;;;8.30;;
2462;SDS011;1243;54.298;10.172;2022-12-29T04:12:22;8.87;;;7.97;;
2462;SDS011;1243;54.298;10.172;2022-12-29T04:14:47;9.17;;;8.00;;
2462;SDS011;1243;54.298;10.172;2022-12-29T04:17:13;9.97;;;7.63;;
2462;SDS011;1243;54.298;10.172;2022-12-29T04:19:39;8.50;;;7.70;;
2462;SDS011;1243;54.298;10.172;2022-12-29T04:22:05;8.93;;;7.27;;
2462;SDS011;1243;54.298;10.172;2022-12-29T04:24:30;9.03;;;8.13;;
2462;SDS011;1243;54.298;10.172;2022-12-29T04:26:56;6.97;;;6.37;;
2462;SDS011;1243;54.298;10.172;2022-12-29T04:29:21;7.30;;;6.70;;
2462;SDS011;1243;54.298;10.172;2022-12-29T04:31:47;6.83;;;6.23;;
2462;SDS011;1243;54.298;10.172;2022-12-29T04:34:13;7.93;;;7.13;;
2462;SDS011;1243;54.298;10.172;2022-12-29T04:36:39;11.60;;;7.30;;
2462;SDS011;1243;54.298;10.172;2022-12-29T04:39:05;7.70;;;6.90;;
2462;SDS011;1243;54.298;10.172;2022-12-29T04:41:31;6.80;;;6.10;;
2462;SDS011;1243;54.298;10.172;2022-12-29T04:43:56;7.50;;;6.83;;
2462;SDS011;1243;54.298;10.172;2022-12-29T04:46:22;6.87;;;6.27;;
2462;SDS011;1243;54.298;10.172;2022-12-29T04:48:48;7.43;;;6.83;;
2462;SDS011;1243;54.298;10.172;2022-12-29T04:51:14;7.60;;;6.90;;
2462;SDS011;1243;54.298;10.172;2022-12-29T04:53:40;6.93;;;6.23;;
2462;SDS011;1243;54.298;10.172;2022-12-29T04:56:06;10.23;;;6.67;;
2462;SDS011;1243;54.298;10.172;2022-12-29T04:58:31;7.03;;;6.43;;
2462;SDS011;1243;54.298;10.172;2022-12-29T05:00:57;7.20;;;6.30;;
2462;SDS011;1243;54.298;10.172;2022-12-29T05:03:23;6.87;;;6.27;;
2462;SDS011;1243;54.298;10.172;2022-12-29T05:05:48;6.63;;;6.03;;
2462;SDS011;1243;54.298;10.172;2022-12-29T05:08:14;7.13;;;6.43;;
2462;SDS011;1243;54.298;10.172;2022-12-29T05:10:43;8.17;;;7.47;;
2462;SDS011;1243;54.298;10.172;2022-12-29T05:13:09;6.70;;;6.20;;
2462;SDS011;1243;54.298;10.172;2022-12-29T05:15:35;7.40;;;6.60;;
2462;SDS011;1243;54.298;10.172;2022-12-29T05:18:01;6.43;;;5.90;;
2462;SDS011;1243;54.298;10.172;2022-12-29T05:20:26;7.43;;;6.00;;
2462;SDS011;1243;54.298;10.172;2022-12-29T05:22:52;8.50;;;6.80;;
2462;SDS011;1243;54.298;10.172;2022-12-29T05:25:18;5.93;;;5.43;;
2462;SDS011;1243;54.298;10.172;2022-12-29T05:27:43;7.13;;;6.20;;
2462;SDS011;1243;54.298;10.172;2022-12-29T05:30:09;6.30;;;5.83;;
2462;SDS011;1243;54.298;10.172;2022-12-29T05:32:35;5.50;;;5.10;;
2462;SDS011;1243;54.298;10.172;2022-12-29T05:35:01;5.77;;;5.37;;
2462;SDS011;1243;54.298;10.172;2022-12-29T05:37:27;13.73;;;6.07;;
2462;SDS011;1243;54.298;10.172;2022-12-29T05:39:53;7.63;;;4.90;;
2462;SDS011;1243;54.298;10.172;2022-12-29T05:42:19;5.97;;;5.37;;
2462;SDS011;1243;54.298;10.172;2022-12-29T05:44:44;6.40;;;5.90;;
2462;SDS011;1243;54.298;10.172;2022-12-29T05:47:10;4.87;;;4.37;;
2462;SDS011;1243;54.298;10.172;2022-12-29T05:49:35;7.07;;;5.70;;
2462;SDS011;1243;54.298;10.172;2022-12-29T05:52:01;5.60;;;5.10;;
2462;SDS011;1243;54.298;10.172;2022-12-29T05:54:27;5.37;;;4.20;;
2462;SDS011;1243;54.298;10.172;2022-12-29T05:56:53;5.53;;;4.77;;
2462;SDS011;1243;54.298;10.172;2022-12-29T05:59:19;4.50;;;4.20;;
2462;SDS011;1243;54.298;10.172;2022-12-29T06:01:44;5.07;;;4.63;;
2462;SDS011;1243;54.298;10.172;2022-12-29T06:04:10;4.60;;;4.20;;
2462;SDS011;1243;54.298;10.172;2022-12-29T06:06:36;4.80;;;4.40;;
2462;SDS011;1243;54.298;10.172;2022-12-29T06:09:02;4.23;;;3.83;;
2462;SDS011;1243;54.298;10.172;2022-12-29T06:11:27;4.07;;;3.80;;
2462;SDS011;1243;54.298;10.172;2022-12-29T06:13:53;4.50;;;4.20;;
2462;SDS011;1243;54.298;10.172;2022-12-29T06:16:19;3.70;;;3.50;;
2462;SDS011;1243;54.298;10.172;2022-12-29T06:18:44;3.03;;;2.80;;
2462;SDS011;1243;54.298;10.172;2022-12-29T06:21:10;3.97;;;3.67;;
2462;SDS011;1243;54.298;10.172;2022-12-29T06:23:36;4.30;;;3.70;;
2462;SDS011;1243;54.298;10.172;2022-12-29T06:26:01;3.50;;;3.30;;
2462;SDS011;1243;54.298;10.172;2022-12-29T06:28:27;3.40;;;3.20;;
2462;SDS011;1243;54.298;10.172;2022-12-29T06:30:53;3.70;;;3.40;;
2462;SDS011;1243;54.298;10.172;2022-12-29T06:33:19;4.47;;;4.07;;
2462;SDS011;1243;54.298;10.172;2022-12-29T06:35:45;3.83;;;3.53;;
2462;SDS011;1243;54.298;10.172;2022-12-29T06:38:11;4.00;;;3.80;;
2462;SDS011;1243;54.298;10.172;2022-12-29T06:40:37;4.00;;;3.80;;
2462;SDS011;1243;54.298;10.172;2022-12-29T06:43:03;4.20;;;3.90;;
2462;SDS011;1243;54.298;10.172;2022-12-29T06:45:29;4.03;;;3.73;;
2462;SDS011;1243;54.298;10.172;2022-12-29T06:47:54;3.60;;;3.30;;
2462;SDS011;1243;54.298;10.172;2022-12-29T06:50:20;4.07;;;3.77;;
2462;SDS011;1243;54.298;10.172;2022-12-29T06:52:46;4.60;;;4.30;;
2462;SDS011;1243;54.298;10.172;2022-12-29T06:55:11;5.10;;;4.10;;
2462;SDS011;1243;54.298;10.172;2022-12-29T06:57:37;4.23;;;3.83;;
2462;SDS011;1243;54.298;10.172;2022-12-29T07:00:03;4.23;;;3.93;;
2462;SDS011;1243;54.298;10.172;2022-12-29T07:02:29;4.50;;;4.10;;
2462;SDS011;1243;54.298;10.172;2022-12-29T07:04:55;4.67;;;3.83;;
2462;SDS011;1243;54.298;10.172;2022-12-29T07:07:21;4.30;;;3.90;;
2462;SDS011;1243;54.298;10.172;2022-12-29T07:09:47;6.60;;;3.87;;
2462;SDS011;1243;54.298;10.172;2022-12-29T07:12:12;5.00;;;4.60;;
2462;SDS011;1243;54.298;10.172;2022-12-29T07:14:38;5.17;;;4.43;;
2462;SDS011;1243;54.298;10.172;2022-12-29T07:17:04;3.80;;;3.60;;
2462;SDS011;1243;54.298;10.172;2022-12-29T07:19:31;4.67;;;4.20;;
2462;SDS011;1243;54.298;10.172;2022-12-29T07:21:57;4.40;;;4.10;;
2462;SDS011;1243;54.298;10.172;2022-12-29T07:24:23;4.53;;;4.20;;
2462;SDS011;1243;54.298;10.172;2022-12-29T07:26:50;4.70;;;4.30;;
2462;SDS011;1243;54.298;10.172;2022-12-29T07:29:17;3.80;;;3.50;;
2462;SDS011;1243;54.298;10.172;2022-12-29T07:31:43;5.70;;;3.77;;
2462;SDS011;1243;54.298;10.172;2022-12-29T07:34:09;3.03;;;2.83;;
2462;SDS011;1243;54.298;10.172;2022-12-29T07:36:35;9.37;;;8.00;;
2462;SDS011;1243;54.298;10.172;2022-12-29T07:39:01;4.10;;;3.80;;
2462;SDS011;1243;54.298;10.172;2022-12-29T07:41:27;4.10;;;3.70;;
2462;SDS011;1243;54.298;10.172;2022-12-29T07:43:53;4.60;;;3.57;;
2462;SDS011;1243;54.298;10.172;2022-12-29T07:46:18;3.57;;;3.27;;
2462;SDS011;1243;54.298;10.172;2022-12-29T07:48:44;9.00;;;3.53;;
2462;SDS011;1243;54.298;10.172;2022-12-29T07:51:10;5.63;;;2.67;;
2462;SDS011;1243;54.298;10.172;2022-12-29T07:53:36;3.10;;;2.80;;
2462;SDS011;1243;54.298;10.172;2022-12-29T07:56:02;3.40;;;3.10;;
2462;SDS011;1243;54.298;10.172;2022-12-29T07:58:27;3.00;;;2.80;;
2462;SDS011;1243;54.298;10.172;2022-12-29T08:00:56;2.07;;;1.97;;
2462;SDS011;1243;54.298;10.172;2022-12-29T08:03:22;3.20;;;3.00;;
2462;SDS011;1243;54.298;10.172;2022-12-29T08:05:49;6.40;;;2.43;;
2462;SDS011;1243;54.298;10.172;2022-12-29T08:08:15;3.17;;;2.97;;
2462;SDS011;1243;54.298;10.172;2022-12-29T08:10:41;3.17;;;2.80;;
2462;SDS011;1243;54.298;10.172;2022-12-29T08:13:07;5.40;;;2.80;;
2462;SDS011;1243;54.298;10.172;2022-12-29T08:15:33;2.30;;;2.20;;
2462;SDS011;1243;54.298;10.172;2022-12-29T08:17:59;2.57;;;2.37;;
2462;SDS011;1243;54.298;10.172;2022-12-29T08:20:24;5.00;;;2.60;;
2462;SDS011;1243;54.298;10.172;2022-12-29T08:22:50;2.30;;;2.10;;
2462;SDS011;1243;54.298;10.172;2022-12-29T08:25:16;3.47;;;2.43;;
2462;SDS011;1243;54.298;10.172;2022-12-29T08:27:44;2.47;;;2.27;;
2462;SDS011;1243;54.298;10.172;2022-12-29T08:30:10;4.93;;;2.40;;
2462;SDS011;1243;54.298;10.172;2022-12-29T08:32:36;2.70;;;2.17;;
2462;SDS011;1243;54.298;10.172;2022-12-29T08:35:02;2.53;;;2.33;;
2462;SDS011;1243;54.298;10.172;2022-12-29T08:37:28;1.93;;;1.80;;
2462;SDS011;1243;54.298;10.172;2022-12-29T08:39:53;2.27;;;2.03;;
2462;SDS011;1243;54.298;10.172;2022-12-29T08:42:19;2.30;;;2.10;;
2462;SDS011;1243;54.298;10.172;2022-12-29T08:44:45;3.20;;;2.20;;
2462;SDS011;1243;54.298;10.172;2022-12-29T08:47:10;6.13;;;2.80;;
2462;SDS011;1243;54.298;10.172;2022-12-29T08:49:36;2.60;;;2.20;;
2462;SDS011;1243;54.298;10.172;2022-12-29T08:52:02;2.50;;;2.13;;
2462;SDS011;1243;54.298;10.172;2022-12-29T08:54:28;3.10;;;2.40;;
2462;SDS011;1243;54.298;10.172;2022-12-29T08:56:54;4.67;;;1.73;;
2462;SDS011;1243;54.298;10.172;2022-12-29T08:59:19;2.27;;;2.17;;
2462;SDS011;1243;54.298;10.172;2022-12-29T09:01:45;2.73;;;2.53;;
2462;SDS011;1243;54.298;10.172;2022-12-29T09:04:11;2.10;;;2.00;;
2462;SDS011;1243;54.298;10.172;2022-12-29T09:06:37;2.93;;;2.63;;
2462;SDS011;1243;54.298;10.172;2022-12-29T09:09:02;2.37;;;2.17;;
2462;SDS011;1243;54.298;10.172;2022-12-29T09:11:28;3.10;;;2.33;;
2462;SDS011;1243;54.298;10.172;2022-12-29T09:13:54;2.50;;;2.30;;
2462;SDS011;1243;54.298;10.172;2022-12-29T09:16:21;2.17;;;2.07;;
2462;SDS011;1243;54.298;10.172;2022-12-29T09:18:48;3.50;;;2.27;;
2462;SDS011;1243;54.298;10.172;2022-12-29T09:21:14;3.90;;;2.70;;
2462;SDS011;1243;54.298;10.172;2022-12-29T09:23:39;2.77;;;2.57;;
2462;SDS011;1243;54.298;10.172;2022-12-29T09:26:05;6.10;;;2.00;;
2462;SDS011;1243;54.298;10.172;2022-12-29T09:28:32;2.80;;;1.93;;
2462;SDS011;1243;54.298;10.172;2022-12-29T09:30:59;2.30;;;1.90;;
2462;SDS011;1243;54.298;10.172;2022-12-29T09:33:25;5.33;;;1.83;;
2462;SDS011;1243;54.298;10.172;2022-12-29T09:35:57;4.30;;;2.00;;
2462;SDS011;1243;54.298;10.172;2022-12-29T09:38:24;1.60;;;1.50;;
2462;SDS011;1243;54.298;10.172;2022-12-29T09:40:54;3.40;;;2.20;;
2462;SDS011;1243;54.298;10.172;2022-12-29T09:46:27;4.90;;;2.37;;
2462;SDS011;1243;54.298;10.172;2022-12-29T09:51:45;1.80;;;1.70;;
2462;SDS011;1243;54.298;10.172;2022-12-29T09:56:59;5.23;;;2.20;;
2462;SDS011;1243;54.298;10.172;2022-12-29T09:59:27;14.73;;;2.80;;
2462;SDS011;1243;54.298;10.172;2022-12-29T10:02:11;7.73;;;2.30;;
2462;SDS011;1243;54.298;10.172;2022-12-29T10:04:51;10.70;;;3.37;;
2462;SDS011;1243;54.298;10.172;2022-12-29T10:10:05;2.50;;;2.30;;
2462;SDS011;1243;54.298;10.172;2022-12-29T10:13:01;7.00;;;2.30;;
2462;SDS011;1243;54.298;10.172;2022-12-29T10:24:19;3.87;;;2.00;;
2462;SDS011;1243;54.298;10.172;2022-12-29T10:26:47;2.67;;;1.90;;
2462;SDS011;1243;54.298;10.172;2022-12-29T10:29:17;3.03;;;1.80;;
2462;SDS011;1243;54.298;10.172;2022-12-29T10:34:30;4.13;;;2.00;;
2462;SDS011;1243;54.298;10.172;2022-12-29T10:37:03;3.97;;;2.07;;
2462;SDS011;1243;54.298;10.172;2022-12-29T10:39:32;3.53;;;2.20;;
2462;SDS011;1243;54.298;10.172;2022-12-29T10:44:38;2.30;;;1.90;;
2462;SDS011;1243;54.298;10.172;2022-12-29T10:47:13;5.80;;;2.00;;
2462;SDS011;1243;54.298;10.172;2022-12-29T10:49:44;2.60;;;1.93;;
2462;SDS011;1243;54.298;10.172;2022-12-29T10:52:11;2.03;;;1.67;;
2462;SDS011;1243;54.298;10.172;2022-12-29T10:57:14;3.60;;;2.13;;
2462;SDS011;1243;54.298;10.172;2022-12-29T10:59:50;4.37;;;2.03;;
2462;SDS011;1243;54.298;10.172;2022-12-29T11:05:02;4.40;;;1.70;;
2462;SDS011;1243;54.298;10.172;2022-12-29T11:07:37;2.07;;;1.87;;
2462;SDS011;1243;54.298;10.172;2022-12-29T11:13:00;2.20;;;1.53;;
2462;SDS011;1243;54.298;10.172;2022-12-29T11:15:37;2.80;;;1.73;;
2462;SDS011;1243;54.298;10.172;2022-12-29T11:20:51;3.63;;;2.00;;
2462;SDS011;1243;54.298;10.172;2022-12-29T11:28:36;4.13;;;2.10;;
2462;SDS011;1243;54.298;10.172;2022-12-29T11:31:04;11.87;;;2.80;;
2462;SDS011;1243;54.298;10.172;2022-12-29T11:33:32;7.53;;;2.70;;
2462;SDS011;1243;54.298;10.172;2022-12-29T11:36:02;6.43;;;2.27;;
2462;SDS011;1243;54.298;10.172;2022-12-29T11:38:50;5.23;;;2.47;;
2462;SDS011;1243;54.298;10.172;2022-12-29T11:41:24;4.43;;;2.00;;
2462;SDS011;1243;54.298;10.172;2022-12-29T11:43:53;12.93;;;2.30;;
2462;SDS011;1243;54.298;10.172;2022-12-29T11:46:31;9.10;;;2.70;;
2462;SDS011;1243;54.298;10.172;2022-12-29T11:48:58;3.60;;;1.60;;
2462;SDS011;1243;54.298;10.172;2022-12-29T11:54:09;2.93;;;2.07;;
2462;SDS011;1243;54.298;10.172;2022-12-29T11:56:42;5.07;;;2.83;;
2462;SDS011;1243;54.298;10.172;2022-12-29T12:02:24;6.90;;;2.80;;
2462;SDS011;1243;54.298;10.172;2022-12-29T12:05:06;4.73;;;2.87;;
2462;SDS011;1243;54.298;10.172;2022-12-29T12:07:47;9.03;;;2.43;;
2462;SDS011;1243;54.298;10.172;2022-12-29T12:10:23;2.40;;;2.20;;
2462;SDS011;1243;54.298;10.172;2022-12-29T12:15:57;5.13;;;2.73;;
2462;SDS011;1243;54.298;10.172;2022-12-29T12:24:11;6.97;;;2.27;;
2462;SDS011;1243;54.298;10.172;2022-12-29T12:26:56;3.13;;;2.37;;
2462;SDS011;1243;54.298;10.172;2022-12-29T12:32:17;7.80;;;2.50;;
2462;SDS011;1243;54.298;10.172;2022-12-29T12:34:53;2.27;;;2.00;;
2462;SDS011;1243;54.298;10.172;2022-12-29T12:40:18;6.97;;;2.30;;
2462;SDS011;1243;54.298;10.172;2022-12-29T12:45:40;5.63;;;2.77;;
2462;SDS011;1243;54.298;10.172;2022-12-29T12:53:51;5.13;;;2.20;;
2462;SDS011;1243;54.298;10.172;2022-12-29T13:13:31;9.70;;;2.50;;
2462;SDS011;1243;54.298;10.172;2022-12-29T13:16:21;7.13;;;2.10;;
2462;SDS011;1243;54.298;10.172;2022-12-29T13:19:10;4.30;;;2.57;;
2462;SDS011;1243;54.298;10.172;2022-12-29T13:22:01;3.60;;;1.90;;
2462;SDS011;1243;54.298;10.172;2022-12-29T13:30:05;2.53;;;2.33;;
2462;SDS011;1243;54.298;10.172;2022-12-29T13:38:00;3.13;;;2.23;;
2462;SDS011;1243;54.298;10.172;2022-12-29T13:40:27;5.30;;;2.43;;
2462;SDS011;1243;54.298;10.172;2022-12-29T13:42:59;1.77;;;1.67;;
2462;SDS011;1243;54.298;10.172;2022-12-29T13:45:28;2.43;;;2.20;;
2462;SDS011;1243;54.298;10.172;2022-12-29T13:48:02;2.80;;;2.33;;
2462;SDS011;1243;54.298;10.172;2022-12-29T13:50:40;4.80;;;1.90;;
2462;SDS011;1243;54.298;10.172;2022-12-29T13:56:07;13.07;;;3.60;;
2462;SDS011;1243;54.298;10.172;2022-12-29T14:04:02;9.70;;;2.73;;
2462;SDS011;1243;54.298;10.172;2022-12-29T14:06:35;4.47;;;2.53;;
2462;SDS011;1243;54.298;10.172;2022-12-29T14:09:05;3.30;;;2.10;;
2462;SDS011;1243;54.298;10.172;2022-12-29T14:11:51;3.40;;;2.20;;
2462;SDS011;1243;54.298;10.172;2022-12-29T14:14:21;5.07;;;2.20;;
2462;SDS011;1243;54.298;10.172;2022-12-29T14:16:50;4.40;;;2.17;;
2462;SDS011;1243;54.298;10.172;2022-12-29T14:19:29;4.87;;;2.67;;
2462;SDS011;1243;54.298;10.172;2022-12-29T14:22:02;4.40;;;2.63;;
2462;SDS011;1243;54.298;10.172;2022-12-29T14:34:52;5.30;;;3.40;;
2462;SDS011;1243;54.298;10.172;2022-12-29T14:37:35;4.60;;;2.77;;
2462;SDS011;1243;54.298;10.172;2022-12-29T14:42:47;9.83;;;3.20;;
2462;SDS011;1243;54.298;10.172;2022-12-29T14:47:41;8.13;;;2.97;;
2462;SDS011;1243;54.298;10.172;2022-12-29T14:50:13;3.07;;;1.93;;
2462;SDS011;1243;54.298;10.172;2022-12-29T14:58:27;6.43;;;3.07;;
2462;SDS011;1243;54.298;10.172;2022-12-29T15:01:00;4.00;;;2.30;;
2462;SDS011;1243;54.298;10.172;2022-12-29T15:03:31;5.13;;;2.27;;
2462;SDS011;1243;54.298;10.172;2022-12-29T15:06:10;6.53;;;2.20;;
2462;SDS011;1243;54.298;10.172;2022-12-29T15:11:41;3.03;;;2.03;;
2462;SDS011;1243;54.298;10.172;2022-12-29T15:16:57;5.30;;;2.80;;
2462;SDS011;1243;54.298;10.172;2022-12-29T15:19:24;7.90;;;2.77;;
2462;SDS011;1243;54.298;10.172;2022-12-29T15:21:52;5.20;;;2.77;;
2462;SDS011;1243;54.298;10.172;2022-12-29T15:24:19;8.80;;;3.23;;
2462;SDS011;1243;54.298;10.172;2022-12-29T15:26:46;7.50;;;3.60;;
2462;SDS011;1243;54.298;10.172;2022-12-29T15:29:31;4.37;;;2.60;;
2462;SDS011;1243;54.298;10.172;2022-12-29T15:32:01;6.83;;;2.60;;
2462;SDS011;1243;54.298;10.172;2022-12-29T15:34:47;4.97;;;2.40;;
2462;SDS011;1243;54.298;10.172;2022-12-29T15:37:18;8.20;;;2.47;;
2462;SDS011;1243;54.298;10.172;2022-12-29T15:39:46;2.47;;;2.23;;
2462;SDS011;1243;54.298;10.172;2022-12-29T15:42:30;6.70;;;2.53;;
2462;SDS011;1243;54.298;10.172;2022-12-29T15:45:17;11.17;;;4.00;;
2462;SDS011;1243;54.298;10.172;2022-12-29T15:47:44;3.40;;;2.40;;
2462;SDS011;1243;54.298;10.172;2022-12-29T15:50:23;3.90;;;2.60;;
2462;SDS011;1243;54.298;10.172;2022-12-29T15:52:52;10.97;;;2.80;;
2462;SDS011;1243;54.298;10.172;2022-12-29T15:55:20;7.10;;;3.20;;
2462;SDS011;1243;54.298;10.172;2022-12-29T15:57:51;7.40;;;2.90;;
2462;SDS011;1243;54.298;10.172;2022-12-29T16:00:23;3.40;;;2.50;;
2462;SDS011;1243;54.298;10.172;2022-12-29T16:02:50;1.87;;;1.77;;
2462;SDS011;1243;54.298;10.172;2022-12-29T16:05:17;9.93;;;2.53;;
2462;SDS011;1243;54.298;10.172;2022-12-29T16:07:53;4.67;;;2.23;;
2462;SDS011;1243;54.298;10.172;2022-12-29T16:10:42;4.80;;;2.80;;
2462;SDS011;1243;54.298;10.172;2022-12-29T16:16:24;7.40;;;2.40;;
2462;SDS011;1243;54.298;10.172;2022-12-29T16:18:52;2.07;;;1.90;;
2462;SDS011;1243;54.298;10.172;2022-12-29T16:21:20;11.37;;;2.50;;
2462;SDS011;1243;54.298;10.172;2022-12-29T16:23:54;2.93;;;2.50;;
2462;SDS011;1243;54.298;10.172;2022-12-29T16:26:23;4.23;;;2.67;;
2462;SDS011;1243;54.298;10.172;2022-12-29T16:28:50;2.40;;;2.20;;
2462;SDS011;1243;54.298;10.172;2022-12-29T16:34:23;14.90;;;3.07;;
2462;SDS011;1243;54.298;10.172;2022-12-29T16:36:54;6.60;;;2.80;;
2462;SDS011;1243;54.298;10.172;2022-12-29T16:39:31;3.50;;;2.30;;
2462;SDS011;1243;54.298;10.172;2022-12-29T16:41:59;7.57;;;3.00;;
2462;SDS011;1243;54.298;10.172;2022-12-29T16:44:29;11.40;;;2.30;;
2462;SDS011;1243;54.298;10.172;2022-12-29T16:49:38;8.47;;;3.50;;
2462;SDS011;1243;54.298;10.172;2022-12-29T16:52:14;6.80;;;3.00;;
2462;SDS011;1243;54.298;10.172;2022-12-29T16:54:54;5.80;;;2.70;;
2462;SDS011;1243;54.298;10.172;2022-12-29T16:57:22;10.47;;;2.83;;
2462;SDS011;1243;54.298;10.172;2022-12-29T16:59:51;6.20;;;2.90;;
2462;SDS011;1243;54.298;10.172;2022-12-29T17:02:19;15.67;;;3.70;;
2462;SDS011;1243;54.298;10.172;2022-12-29T17:04:47;6.00;;;2.90;;
2462;SDS011;1243;54.298;10.172;2022-12-29T17:07:18;6.20;;;2.07;;
2462;SDS011;1243;54.298;10.172;2022-12-29T17:09:48;9.83;;;2.90;;
2462;SDS011;1243;54.298;10.172;2022-12-29T17:12:18;5.73;;;2.50;;
2462;SDS011;1243;54.298;10.172;2022-12-29T17:17:26;9.90;;;2.40;;
2462;SDS011;1243;54.298;10.172;2022-12-29T17:19:59;5.73;;;3.33;;
2462;SDS011;1243;54.298;10.172;2022-12-29T17:22:28;8.77;;;5.00;;
2462;SDS011;1243;54.298;10.172;2022-12-29T17:24:54;10.10;;;2.60;;
2462;SDS011;1243;54.298;10.172;2022-12-29T17:27:23;6.93;;;3.17;;
2462;SDS011;1243;54.298;10.172;2022-12-29T17:29:56;3.30;;;2.37;;
2462;SDS011;1243;54.298;10.172;2022-12-29T17:32:25;6.90;;;3.10;;
2462;SDS011;1243;54.298;10.172;2022-12-29T17:34:51;5.20;;;2.33;;
2462;SDS011;1243;54.298;10.172;2022-12-29T17:39:48;14.47;;;3.30;;
2462;SDS011;1243;54.298;10.172;2022-12-29T17:42:14;10.10;;;3.10;;
2462;SDS011;1243;54.298;10.172;2022-12-29T17:44:39;7.03;;;2.83;;
2462;SDS011;1243;54.298;10.172;2022-12-29T17:47:08;6.77;;;3.00;;
2462;SDS011;1243;54.298;10.172;2022-12-29T17:49:35;11.10;;;2.80;;
2462;SDS011;1243;54.298;10.172;2022-12-29T17:52:01;3.00;;;2.73;;
2462;SDS011;1243;54.298;10.172;2022-12-29T17:54:28;3.93;;;2.60;;
2462;SDS011;1243;54.298;10.172;2022-12-29T17:56:54;5.13;;;3.10;;
2462;SDS011;1243;54.298;10.172;2022-12-29T17:59:19;3.27;;;2.90;;
2462;SDS011;1243;54.298;10.172;2022-12-29T18:01:46;11.30;;;2.57;;
2462;SDS011;1243;54.298;10.172;2022-12-29T18:04:13;5.20;;;3.77;;
2462;SDS011;1243;54.298;10.172;2022-12-29T18:06:41;8.30;;;2.90;;
2462;SDS011;1243;54.298;10.172;2022-12-29T18:09:08;7.90;;;2.53;;
2462;SDS011;1243;54.298;10.172;2022-12-29T18:11:35;6.13;;;2.83;;
2462;SDS011;1243;54.298;10.172;2022-12-29T18:14:15;7.67;;;3.40;;
2462;SDS011;1243;54.298;10.172;2022-12-29T18:16:41;2.97;;;2.63;;
2462;SDS011;1243;54.298;10.172;2022-12-29T18:19:08;4.40;;;2.60;;
2462;SDS011;1243;54.298;10.172;2022-12-29T18:21:34;7.47;;;2.63;;